createdAt,value
2018-12-20T00:02:28.332Z,6.20
2018-12-20T00:04:57.051Z,6.47
2018-12-20T00:07:25.960Z,6.50
2018-12-20T00:09:54.433Z,7.85
2018-12-20T00:12:22.843Z,6.75
2018-12-20T00:14:51.458Z,6.15
2018-12-20T00:17:25.906Z,6.58
2018-12-20T00:19:54.642Z,6.15
2018-12-20T00:22:23.543Z,6.85
2018-12-20T00:24:52.038Z,6.20
2018-12-20T00:27:20.458Z,6.35
2018-12-20T00:29:48.945Z,6.17
2018-12-20T00:32:17.412Z,6.12
2018-12-20T00:34:47.037Z,5.78
2018-12-20T00:37:14.462Z,5.85
2018-12-20T00:39:41.943Z,5.70
2018-12-20T00:42:10.627Z,6.20
2018-12-20T00:44:39.268Z,5.55
2018-12-20T00:47:07.831Z,6.33
2018-12-20T00:49:36.394Z,6.00
2018-12-20T00:52:04.959Z,6.20
2018-12-20T00:54:33.308Z,6.10
2018-12-20T00:57:01.819Z,5.40
2018-12-20T00:59:30.688Z,6.00
2018-12-20T01:01:58.038Z,5.35
2018-12-20T01:04:26.489Z,5.25
2018-12-20T01:06:55.511Z,6.25
2018-12-20T01:09:23.954Z,5.78
2018-12-20T01:11:52.458Z,6.22
2018-12-20T01:14:21.136Z,5.45
2018-12-20T01:16:50.122Z,5.72
2018-12-20T01:19:17.525Z,5.50
2018-12-20T01:21:46.218Z,5.35
2018-12-20T01:24:14.826Z,6.20
2018-12-20T01:26:43.317Z,5.65
2018-12-20T01:29:11.866Z,5.30
2018-12-20T01:31:40.685Z,6.80
2018-12-20T01:34:09.362Z,6.20
2018-12-20T01:36:38.699Z,5.40
2018-12-20T01:39:06.673Z,5.95
2018-12-20T01:41:35.206Z,5.55
2018-12-20T01:44:03.997Z,6.35
2018-12-20T01:46:32.636Z,5.55
2018-12-20T01:49:01.243Z,6.22
2018-12-20T01:51:29.854Z,5.97
2018-12-20T01:53:58.394Z,5.90
2018-12-20T01:56:26.894Z,5.78
2018-12-20T01:58:55.446Z,6.20
2018-12-20T02:01:24.196Z,5.25
2018-12-20T02:03:52.709Z,5.83
2018-12-20T02:06:21.290Z,6.08
2018-12-20T02:08:50.386Z,5.97
2018-12-20T02:11:18.840Z,6.60
2018-12-20T02:13:47.402Z,6.17
2018-12-20T02:16:16.079Z,5.60
2018-12-20T02:18:44.936Z,5.80
2018-12-20T02:21:13.889Z,5.30
2018-12-20T02:23:41.469Z,5.25
2018-12-20T02:26:09.972Z,5.05
2018-12-20T02:28:38.433Z,5.85
2018-12-20T02:31:06.877Z,4.95
2018-12-20T02:33:35.546Z,5.28
2018-12-20T02:36:04.104Z,4.78
2018-12-20T02:38:32.610Z,4.75
2018-12-20T02:41:01.088Z,4.70
2018-12-20T02:43:29.740Z,4.75
2018-12-20T02:45:58.510Z,4.25
2018-12-20T02:48:26.913Z,4.45
2018-12-20T02:50:55.432Z,4.53
2018-12-20T02:53:24.319Z,3.83
2018-12-20T02:55:51.822Z,3.60
2018-12-20T02:58:22.070Z,3.60
2018-12-20T03:00:49.615Z,3.80
2018-12-20T03:03:17.988Z,3.52
2018-12-20T03:05:46.792Z,3.98
2018-12-20T03:08:15.379Z,3.75
2018-12-20T03:10:44.040Z,4.62
2018-12-20T03:13:12.538Z,4.20
2018-12-20T03:15:41.388Z,3.83
2018-12-20T03:18:10.120Z,4.22
2018-12-20T03:20:37.831Z,4.62
2018-12-20T03:23:06.300Z,4.85
2018-12-20T03:25:34.820Z,4.40
2018-12-20T03:28:04.130Z,4.33
2018-12-20T03:30:31.502Z,4.83
2018-12-20T03:32:59.911Z,5.20
2018-12-20T03:35:28.567Z,5.10
2018-12-20T03:37:57.242Z,4.33
2018-12-20T03:40:25.678Z,4.80
2018-12-20T03:42:54.566Z,5.03
2018-12-20T03:45:28.601Z,5.95
2018-12-20T03:47:52.674Z,5.15
2018-12-20T03:50:21.427Z,5.42
2018-12-20T03:52:50.273Z,4.40
2018-12-20T03:55:18.969Z,5.37
2018-12-20T03:57:47.422Z,5.00
2018-12-20T04:00:16.359Z,4.50
2018-12-20T04:02:45.082Z,4.92
2018-12-20T04:05:13.862Z,5.12
2018-12-20T04:07:42.383Z,5.08
2018-12-20T04:10:10.991Z,4.87
2018-12-20T04:12:38.747Z,5.20
2018-12-20T04:15:07.485Z,5.05
2018-12-20T04:17:35.983Z,5.20
2018-12-20T04:20:05.253Z,5.05
2018-12-20T04:22:33.879Z,5.25
2018-12-20T04:25:02.340Z,4.87
2018-12-20T04:27:30.908Z,5.10
2018-12-20T04:29:59.565Z,5.65
2018-12-20T04:32:31.260Z,5.50
2018-12-20T04:34:59.712Z,4.75
2018-12-20T04:37:28.125Z,4.85
2018-12-20T04:39:56.834Z,6.05
2018-12-20T04:42:26.932Z,5.70
2018-12-20T04:44:54.346Z,5.75
2018-12-20T04:47:22.812Z,5.03
2018-12-20T04:49:51.393Z,6.10
2018-12-20T04:52:20.019Z,5.15
2018-12-20T04:54:48.424Z,5.37
2018-12-20T04:57:17.134Z,4.70
2018-12-20T04:59:45.821Z,5.00
2018-12-20T05:02:14.449Z,5.05
2018-12-20T05:04:54.451Z,5.25
2018-12-20T05:07:22.947Z,4.90
2018-12-20T05:09:50.285Z,5.85
2018-12-20T05:12:17.879Z,4.75
2018-12-20T05:14:45.412Z,4.60
2018-12-20T05:17:12.921Z,4.72
2018-12-20T05:19:40.550Z,5.72
2018-12-20T05:22:08.365Z,4.70
2018-12-20T05:24:35.732Z,4.85
2018-12-20T05:27:03.146Z,5.28
2018-12-20T05:29:30.975Z,4.92
2018-12-20T05:31:58.533Z,4.92
2018-12-20T05:34:26.063Z,4.87
2018-12-20T05:36:54.730Z,4.37
2018-12-20T05:39:23.199Z,5.03
2018-12-20T05:41:51.888Z,5.00
2018-12-20T05:44:20.424Z,5.28
2018-12-20T05:46:48.868Z,4.83
2018-12-20T05:49:17.409Z,5.00
2018-12-20T05:51:45.883Z,5.12
2018-12-20T05:54:14.461Z,5.15
2018-12-20T05:56:43.111Z,5.10
2018-12-20T05:59:15.409Z,4.65
2018-12-20T06:01:43.001Z,5.00
2018-12-20T06:04:11.602Z,5.37
2018-12-20T06:06:40.388Z,5.60
2018-12-20T06:09:09.027Z,4.92
2018-12-20T06:11:37.797Z,4.70
2018-12-20T06:14:06.459Z,5.22
2018-12-20T06:16:34.961Z,4.62
2018-12-20T06:19:03.611Z,4.83
2018-12-20T06:21:32.159Z,4.95
2018-12-20T06:24:00.578Z,4.47
2018-12-20T06:26:28.885Z,4.65
2018-12-20T06:28:57.271Z,4.10
2018-12-20T06:31:25.640Z,3.47
2018-12-20T06:33:54.076Z,3.37
2018-12-20T06:36:22.608Z,3.25
2018-12-20T06:38:51.140Z,2.60
2018-12-20T06:41:19.542Z,2.72
2018-12-20T06:43:48.057Z,2.70
2018-12-20T06:46:21.153Z,3.02
2018-12-20T06:48:48.344Z,2.77
2018-12-20T06:51:16.616Z,3.45
2018-12-20T06:53:50.736Z,2.80
2018-12-20T06:56:18.192Z,3.02
2018-12-20T06:58:45.970Z,2.75
2018-12-20T07:01:13.290Z,2.42
2018-12-20T07:03:40.582Z,2.90
2018-12-20T07:06:07.833Z,2.87
2018-12-20T07:08:36.196Z,3.50
2018-12-20T07:11:04.564Z,3.00
2018-12-20T07:13:32.957Z,3.12
2018-12-20T07:16:01.349Z,3.08
2018-12-20T07:18:29.806Z,3.10
2018-12-20T07:20:59.169Z,2.85
2018-12-20T07:23:26.542Z,3.47
2018-12-20T07:25:54.966Z,3.77
2018-12-20T07:28:23.341Z,3.27
2018-12-20T07:30:51.817Z,3.85
2018-12-20T07:33:20.437Z,3.92
2018-12-20T07:35:48.921Z,3.60
2018-12-20T07:38:17.729Z,4.30
2018-12-20T07:40:46.190Z,4.60
2018-12-20T07:43:16.057Z,4.28
2018-12-20T07:45:43.349Z,4.15
2018-12-20T07:48:11.631Z,3.98
2018-12-20T07:50:40.023Z,4.10
2018-12-20T07:53:08.329Z,4.40
2018-12-20T07:55:36.686Z,4.28
2018-12-20T07:58:05.114Z,4.28
2018-12-20T08:00:34.259Z,4.00
2018-12-20T08:03:02.882Z,4.28
2018-12-20T08:05:31.246Z,4.87
2018-12-20T08:07:59.613Z,3.95
2018-12-20T08:10:28.036Z,4.33
2018-12-20T08:12:56.413Z,4.20
2018-12-20T08:15:24.974Z,3.85
2018-12-20T08:17:53.444Z,3.90
2018-12-20T08:20:23.521Z,4.25
2018-12-20T08:22:50.813Z,4.22
2018-12-20T08:25:19.230Z,4.60
2018-12-20T08:27:47.607Z,4.70
2018-12-20T08:30:16.417Z,4.15
2018-12-20T08:32:44.926Z,3.90
2018-12-20T08:35:13.304Z,3.60
2018-12-20T08:37:41.694Z,4.10
2018-12-20T08:40:10.687Z,4.45
2018-12-20T08:42:39.307Z,3.30
2018-12-20T08:45:08.076Z,4.05
2018-12-20T08:47:36.853Z,3.35
2018-12-20T08:50:06.157Z,3.45
2018-12-20T08:52:34.437Z,3.58
2018-12-20T08:55:03.241Z,3.80
2018-12-20T08:57:31.537Z,3.80
2018-12-20T09:00:00.961Z,3.05
2018-12-20T09:02:29.294Z,3.25
2018-12-20T09:04:57.755Z,2.80
2018-12-20T09:07:26.226Z,2.83
2018-12-20T09:09:54.784Z,4.05
2018-12-20T09:12:25.376Z,3.15
2018-12-20T09:14:52.678Z,3.77
2018-12-20T09:17:21.153Z,3.65
2018-12-20T09:19:49.534Z,3.30
2018-12-20T09:22:18.108Z,3.95
2018-12-20T09:24:48.907Z,3.40
2018-12-20T09:27:16.274Z,3.12
2018-12-20T09:29:43.593Z,2.90
2018-12-20T09:32:11.977Z,3.30
2018-12-20T09:34:40.366Z,3.42
2018-12-20T09:37:09.010Z,2.90
2018-12-20T09:39:38.790Z,3.25
2018-12-20T09:42:07.165Z,3.40
2018-12-20T09:44:35.462Z,3.12
2018-12-20T09:47:11.925Z,3.55
2018-12-20T09:49:42.592Z,2.77
2018-12-20T09:52:09.903Z,3.00
2018-12-20T09:54:37.172Z,2.35
2018-12-20T09:57:05.556Z,2.60
2018-12-20T09:59:33.946Z,2.75
2018-12-20T10:02:02.334Z,3.42
2018-12-20T10:04:33.478Z,2.90
2018-12-20T10:07:00.767Z,2.77
2018-12-20T10:09:27.998Z,2.87
2018-12-20T10:11:56.466Z,2.40
2018-12-20T10:14:24.949Z,2.75
2018-12-20T10:16:57.678Z,2.20
2018-12-20T10:19:25.095Z,2.30
2018-12-20T10:21:53.678Z,2.35
2018-12-20T10:24:21.017Z,2.20
2018-12-20T10:26:48.985Z,2.47
2018-12-20T10:29:16.326Z,2.40
2018-12-20T10:31:43.597Z,2.15
2018-12-20T10:34:12.207Z,2.50
2018-12-20T10:36:39.509Z,1.62
2018-12-20T10:39:08.239Z,1.87
2018-12-20T10:41:36.653Z,1.60
2018-12-20T10:44:05.022Z,1.90
2018-12-20T10:46:36.888Z,2.52
2018-12-20T10:49:04.330Z,2.37
2018-12-20T10:51:31.588Z,2.37
2018-12-20T10:53:58.955Z,1.70
2018-12-20T10:56:26.441Z,2.00
2018-12-20T10:58:56.344Z,1.80
2018-12-20T11:01:32.788Z,1.87
2018-12-20T11:04:07.010Z,1.62
2018-12-20T11:06:45.296Z,2.05
2018-12-20T11:09:20.422Z,2.17
2018-12-20T11:11:53.279Z,1.77
2018-12-20T11:14:25.427Z,2.60
2018-12-20T11:16:52.701Z,1.62
2018-12-20T11:19:21.288Z,2.52
2018-12-20T11:21:48.677Z,1.90
2018-12-20T11:24:15.995Z,1.80
2018-12-20T11:26:43.302Z,2.10
2018-12-20T11:29:14.495Z,1.70
2018-12-20T11:31:41.891Z,1.80
2018-12-20T11:34:09.181Z,2.10
2018-12-20T11:36:36.572Z,1.70
2018-12-20T11:39:08.522Z,1.72
2018-12-20T11:41:39.041Z,1.60
2018-12-20T11:44:07.573Z,1.85
2018-12-20T11:46:35.982Z,1.90
2018-12-20T11:49:04.429Z,1.85
2018-12-20T11:51:32.949Z,1.90
2018-12-20T11:54:06.113Z,1.57
2018-12-20T11:56:33.370Z,1.65
2018-12-20T11:59:00.890Z,1.70
2018-12-20T12:01:28.162Z,1.77
2018-12-20T12:03:57.545Z,1.87
2018-12-20T12:06:25.886Z,1.50
2018-12-20T12:08:57.560Z,2.10
2018-12-20T12:11:24.919Z,1.72
2018-12-20T12:13:52.260Z,1.92
2018-12-20T12:16:20.781Z,2.00
2018-12-20T12:18:49.425Z,1.60
2018-12-20T12:21:16.721Z,2.12
2018-12-20T12:23:46.989Z,2.00
2018-12-20T12:26:14.273Z,1.80
2018-12-20T12:28:42.641Z,1.85
2018-12-20T12:31:11.074Z,1.60
2018-12-20T12:33:39.495Z,2.10
2018-12-20T12:36:07.829Z,2.12
2018-12-20T12:38:37.678Z,1.80
2018-12-20T12:41:06.029Z,1.62
2018-12-20T12:43:34.469Z,2.00
2018-12-20T12:46:03.021Z,1.70
2018-12-20T12:48:32.318Z,2.50
2018-12-20T12:51:00.790Z,2.20
2018-12-20T12:53:29.195Z,2.30
2018-12-20T12:55:57.617Z,2.25
2018-12-20T12:58:26.131Z,1.90
2018-12-20T13:00:54.540Z,1.70
2018-12-20T13:03:22.932Z,1.75
2018-12-20T13:05:51.460Z,2.25
2018-12-20T13:08:25.050Z,2.10
2018-12-20T13:10:52.373Z,2.25
2018-12-20T13:13:19.811Z,2.37
2018-12-20T13:15:47.572Z,2.10
2018-12-20T13:18:14.818Z,2.50
2018-12-20T13:20:43.081Z,2.55
2018-12-20T13:23:11.523Z,2.10
2018-12-20T13:25:39.833Z,2.50
2018-12-20T13:28:08.287Z,2.50
2018-12-20T13:30:36.676Z,2.40
2018-12-20T13:33:05.236Z,2.00
2018-12-20T13:35:34.587Z,2.12
2018-12-20T13:38:02.835Z,2.72
2018-12-20T13:40:31.178Z,2.30
2018-12-20T13:42:59.613Z,2.10
2018-12-20T13:45:27.936Z,2.17
2018-12-20T13:47:57.801Z,3.35
2018-12-20T13:50:25.135Z,1.90
2018-12-20T13:52:53.958Z,2.05
2018-12-20T13:55:22.466Z,2.10
2018-12-20T13:57:51.006Z,2.10
2018-12-20T14:00:19.570Z,1.67
2018-12-20T14:02:47.924Z,2.08
2018-12-20T14:05:16.385Z,1.85
2018-12-20T14:07:44.821Z,1.90
2018-12-20T14:10:13.394Z,1.72
2018-12-20T14:12:42.197Z,2.12
2018-12-20T14:15:10.452Z,1.98
2018-12-20T14:17:38.877Z,2.27
2018-12-20T14:20:07.382Z,2.17
2018-12-20T14:22:35.735Z,2.10
2018-12-20T14:25:04.786Z,2.12
2018-12-20T14:27:33.127Z,2.10
2018-12-20T14:30:01.608Z,2.70
2018-12-20T14:32:30.044Z,2.00
2018-12-20T14:34:58.455Z,2.30
2018-12-20T14:37:27.265Z,2.30
2018-12-20T14:39:55.697Z,2.00
2018-12-20T14:42:24.206Z,2.00
2018-12-20T14:44:52.728Z,1.70
2018-12-20T14:47:21.607Z,2.20
2018-12-20T14:49:48.809Z,1.90
2018-12-20T14:52:17.725Z,2.50
2018-12-20T14:54:46.034Z,2.02
2018-12-20T14:57:14.409Z,2.90
2018-12-20T14:59:42.849Z,2.30
2018-12-20T15:02:12.498Z,2.30
2018-12-20T15:04:39.721Z,2.25
2018-12-20T15:07:10.935Z,2.05
2018-12-20T15:09:38.137Z,3.60
2018-12-20T15:12:05.342Z,3.08
2018-12-20T15:14:32.645Z,3.10
2018-12-20T15:17:00.913Z,2.90
2018-12-20T15:19:32.171Z,2.65
2018-12-20T15:21:59.502Z,2.70
2018-12-20T15:24:26.943Z,2.40
2018-12-20T15:26:54.230Z,2.60
2018-12-20T15:29:22.738Z,2.87
2018-12-20T15:31:56.305Z,2.27
2018-12-20T15:34:23.547Z,2.77
2018-12-20T15:36:50.946Z,2.30
2018-12-20T15:39:18.985Z,3.00
2018-12-20T15:41:46.458Z,2.80
2018-12-20T15:44:20.098Z,2.42
2018-12-20T15:46:47.334Z,2.58
2018-12-20T15:49:14.669Z,1.90
2018-12-20T15:51:41.919Z,2.35
2018-12-20T15:54:09.358Z,2.10
2018-12-20T15:56:36.597Z,3.02
2018-12-20T15:59:11.294Z,3.22
2018-12-20T16:01:38.528Z,3.75
2018-12-20T16:04:05.949Z,3.90
2018-12-20T16:06:33.173Z,4.40
2018-12-20T16:09:00.375Z,4.40
2018-12-20T16:11:28.929Z,3.05
2018-12-20T16:14:02.256Z,3.15
2018-12-20T16:16:29.468Z,2.47
2018-12-20T16:19:04.710Z,2.67
2018-12-20T16:21:26.075Z,3.45
2018-12-20T16:23:53.283Z,3.10
2018-12-20T16:26:24.836Z,2.70
2018-12-20T16:28:52.176Z,3.20
2018-12-20T16:31:19.480Z,3.15
2018-12-20T16:33:46.827Z,3.35
2018-12-20T16:36:14.170Z,2.98
2018-12-20T16:38:42.534Z,2.83
2018-12-20T16:41:12.661Z,3.25
2018-12-20T16:43:40.034Z,3.20
2018-12-20T16:46:07.253Z,3.58
2018-12-20T16:48:35.508Z,3.50
2018-12-20T16:51:03.954Z,3.80
2018-12-20T16:53:32.270Z,3.92
2018-12-20T16:56:00.838Z,4.83
2018-12-20T16:58:29.254Z,4.40
2018-12-20T17:00:57.697Z,4.28
2018-12-20T17:03:26.151Z,4.35
2018-12-20T17:05:54.432Z,3.98
2018-12-20T17:08:22.898Z,4.00
2018-12-20T17:10:51.519Z,4.00
2018-12-20T17:13:20.073Z,4.10
2018-12-20T17:15:48.549Z,3.90
2018-12-20T17:18:16.927Z,5.05
2018-12-20T17:20:45.461Z,3.42
2018-12-20T17:23:13.833Z,3.75
2018-12-20T17:25:42.169Z,3.62
2018-12-20T17:28:10.581Z,3.75
2018-12-20T17:30:38.933Z,3.30
2018-12-20T17:33:07.302Z,4.15
2018-12-20T17:35:35.856Z,3.90
2018-12-20T17:38:04.234Z,3.40
2018-12-20T17:40:32.578Z,4.12
2018-12-20T17:43:00.904Z,4.40
2018-12-20T17:45:29.232Z,3.50
2018-12-20T17:47:57.512Z,3.67
2018-12-20T17:50:26.073Z,3.60
2018-12-20T17:52:54.326Z,3.65
2018-12-20T17:55:22.774Z,3.95
2018-12-20T17:57:51.284Z,3.90
2018-12-20T18:00:18.695Z,4.30
2018-12-20T18:02:47.188Z,4.12
2018-12-20T18:05:15.649Z,4.65
2018-12-20T18:07:44.056Z,4.80
2018-12-20T18:10:12.592Z,4.33
2018-12-20T18:12:41.220Z,3.80
2018-12-20T18:15:11.556Z,4.25
2018-12-20T18:17:39.950Z,4.30
2018-12-20T18:20:09.695Z,4.60
2018-12-20T18:22:37.998Z,4.40
2018-12-20T18:25:07.159Z,4.87
2018-12-20T18:27:35.488Z,4.72
2018-12-20T18:30:06.600Z,5.40
2018-12-20T18:32:34.894Z,4.65
2018-12-20T18:35:03.861Z,5.08
2018-12-20T18:37:32.440Z,4.65
2018-12-20T18:40:00.907Z,5.60
2018-12-20T18:42:29.183Z,5.65
2018-12-20T18:44:57.438Z,5.92
2018-12-20T18:47:25.684Z,6.47
2018-12-20T18:49:54.077Z,5.62
2018-12-20T18:52:22.496Z,6.45
2018-12-20T18:54:50.840Z,5.90
2018-12-20T18:57:19.366Z,6.37
2018-12-20T18:59:48.124Z,6.75
2018-12-20T19:02:16.762Z,6.55
2018-12-20T19:04:44.994Z,7.05
2018-12-20T19:07:13.458Z,6.50
2018-12-20T19:09:41.777Z,6.15
2018-12-20T19:12:10.247Z,7.30
2018-12-20T19:14:38.555Z,6.62
2018-12-20T19:17:08.451Z,5.50
2018-12-20T19:19:35.612Z,7.17
2018-12-20T19:22:04.086Z,6.80
2018-12-20T19:24:32.695Z,5.65
2018-12-20T19:27:01.124Z,5.22
2018-12-20T19:29:28.372Z,5.20
2018-12-20T19:31:57.076Z,4.75
2018-12-20T19:34:25.402Z,5.28
2018-12-20T19:36:53.877Z,5.30
2018-12-20T19:39:23.514Z,5.40
2018-12-20T19:41:52.158Z,5.62
2018-12-20T19:44:20.608Z,5.28
2018-12-20T19:46:49.958Z,4.90
2018-12-20T19:49:18.570Z,5.20
2018-12-20T19:51:47.439Z,5.55
2018-12-20T19:54:14.846Z,5.58
2018-12-20T19:56:43.678Z,4.62
2018-12-20T19:59:12.121Z,4.92
2018-12-20T20:01:40.559Z,4.78
2018-12-20T20:04:09.016Z,4.85
2018-12-20T20:06:37.636Z,4.80
2018-12-20T20:09:06.906Z,5.40
2018-12-20T20:11:35.237Z,5.78
2018-12-20T20:14:03.964Z,5.60
2018-12-20T20:16:32.478Z,5.60
2018-12-20T20:19:00.915Z,5.45
2018-12-20T20:21:29.711Z,5.40
2018-12-20T20:23:58.333Z,5.20
2018-12-20T20:26:26.837Z,5.28
2018-12-20T20:28:55.258Z,5.53
2018-12-20T20:31:23.537Z,4.90
2018-12-20T20:33:51.934Z,5.83
2018-12-20T20:36:20.539Z,5.60
2018-12-20T20:38:49.194Z,4.95
2018-12-20T20:41:17.550Z,5.15
2018-12-20T20:43:46.233Z,5.20
2018-12-20T20:46:14.766Z,5.87
2018-12-20T20:48:43.203Z,5.83
2018-12-20T20:51:11.850Z,6.00
2018-12-20T20:53:40.500Z,6.33
2018-12-20T20:56:08.751Z,6.35
2018-12-20T20:58:37.316Z,5.92
2018-12-20T21:01:05.664Z,5.25
2018-12-20T21:03:34.153Z,4.83
2018-12-20T21:06:02.654Z,4.67
2018-12-20T21:08:31.241Z,5.40
2018-12-20T21:10:59.697Z,5.60
2018-12-20T21:13:28.232Z,4.70
2018-12-20T21:15:58.158Z,5.25
2018-12-20T21:18:26.788Z,4.90
2018-12-20T21:20:55.307Z,5.17
2018-12-20T21:23:23.706Z,4.47
2018-12-20T21:25:52.357Z,5.17
2018-12-20T21:28:23.061Z,4.42
2018-12-20T21:30:50.540Z,4.70
2018-12-20T21:33:19.094Z,4.37
2018-12-20T21:35:47.708Z,5.37
2018-12-20T21:38:16.114Z,4.90
2018-12-20T21:40:44.518Z,5.05
2018-12-20T21:43:12.910Z,4.80
2018-12-20T21:45:41.357Z,4.53
2018-12-20T21:48:09.724Z,4.58
2018-12-20T21:50:39.060Z,4.65
2018-12-20T21:53:07.778Z,4.37
2018-12-20T21:55:36.272Z,4.80
2018-12-20T21:58:04.787Z,5.17
2018-12-20T22:00:33.209Z,4.58
2018-12-20T22:03:01.577Z,4.30
2018-12-20T22:05:30.192Z,4.00
2018-12-20T22:07:58.829Z,4.28
2018-12-20T22:10:27.546Z,5.00
2018-12-20T22:12:55.877Z,3.72
2018-12-20T22:15:24.281Z,3.65
2018-12-20T22:17:52.835Z,2.75
2018-12-20T22:20:20.101Z,3.10
2018-12-20T22:22:48.405Z,2.58
2018-12-20T22:25:22.889Z,3.20
2018-12-20T22:27:50.222Z,2.80
2018-12-20T22:30:17.512Z,2.75
2018-12-20T22:32:46.561Z,3.08
2018-12-20T22:35:14.317Z,3.55
2018-12-20T22:37:41.614Z,3.30
2018-12-20T22:40:08.969Z,3.00
2018-12-20T22:42:36.326Z,3.67
2018-12-20T22:45:06.161Z,3.50
2018-12-20T22:47:34.667Z,3.50
2018-12-20T22:50:03.554Z,4.10
2018-12-20T22:52:30.865Z,3.47
2018-12-20T22:55:00.982Z,4.03
2018-12-20T22:57:29.316Z,4.30
2018-12-20T22:59:58.042Z,4.35
2018-12-20T23:02:26.961Z,4.00
2018-12-20T23:04:55.937Z,4.80
2018-12-20T23:07:25.708Z,4.35
2018-12-20T23:09:53.171Z,4.70
2018-12-20T23:12:22.501Z,3.67
2018-12-20T23:14:51.339Z,4.30
2018-12-20T23:17:18.866Z,4.30
2018-12-20T23:19:47.515Z,4.78
2018-12-20T23:22:15.866Z,4.00
2018-12-20T23:24:44.289Z,3.75
2018-12-20T23:27:12.845Z,3.95
2018-12-20T23:29:41.478Z,4.00
2018-12-20T23:32:10.378Z,4.03
2018-12-20T23:34:38.773Z,3.67
2018-12-20T23:37:07.198Z,3.75
2018-12-20T23:39:35.594Z,3.37
2018-12-20T23:42:05.461Z,3.52
2018-12-20T23:44:32.956Z,3.67
2018-12-20T23:47:03.988Z,3.83
2018-12-20T23:49:31.282Z,3.70
2018-12-20T23:51:58.526Z,3.83
2018-12-20T23:54:27.412Z,3.22
2018-12-20T23:56:54.693Z,3.80
2018-12-20T23:59:21.945Z,3.47
